Time;durP1;ratioP1;P1;durP2;ratioP2;P2;SDS_P1;SDS_P2;PMS_P1;PMS_P2;Temp;Humidity;BMP_temperature;BMP_pressure;BME280_temperature;BME280_humidity;BME280_pressure;Samples;Min_cycle;Max_cycle;Signal;HPM_P1;HPM_P2
2021/04/08 00:01:14;;;;;;;9.23;4.00;;;;;;;4.49;76.29;98900.31;6258206;22;20015;-78
2021/04/08 00:03:40;;;;;;;5.13;4.33;;;;;;;4.46;76.38;98900.81;6253557;22;20007;-76
2021/04/08 00:06:06;;;;;;;6.88;3.63;;;;;;;4.38;76.36;98899.38;6273913;22;20219;-76
2021/04/08 00:08:31;;;;;;;6.72;3.67;;;;;;;4.37;76.56;98907.53;6275307;22;20083;-76
2021/04/08 00:10:57;;;;;;;5.13;3.63;;;;;;;4.31;76.82;98904.81;6273612;22;20581;-75
2021/04/08 00:13:22;;;;;;;4.57;2.78;;;;;;;4.23;76.80;98907.84;6273511;22;20027;-75
2021/04/08 00:15:48;;;;;;;4.97;3.03;;;;;;;4.15;76.87;98921.44;6272615;22;20004;-75
2021/04/08 00:18:14;;;;;;;7.57;3.53;;;;;;;4.14;77.34;98930.44;6272718;22;20003;-76
2021/04/08 00:20:41;;;;;;;4.75;3.60;;;;;;;4.11;77.34;98939.66;6272613;22;20000;-76
2021/04/08 00:23:06;;;;;;;4.68;3.05;;;;;;;4.05;77.17;98943.22;6247758;22;20007;-76
2021/04/08 00:25:32;;;;;;;4.93;3.65;;;;;;;4.00;77.64;98930.72;6272195;22;20602;-75
2021/04/08 00:27:57;;;;;;;6.38;3.70;;;;;;;3.92;77.38;98923.16;6272728;22;19999;-75
2021/04/08 00:30:23;;;;;;;6.22;4.10;;;;;;;3.82;77.88;98922.94;6273461;22;20046;-75
2021/04/08 00:32:49;;;;;;;5.00;3.65;;;;;;;3.69;77.25;98919.53;6271549;22;20007;-75
2021/04/08 00:35:14;;;;;;;4.97;3.92;;;;;;;3.66;77.73;98924.47;6272806;22;20000;-75
2021/04/08 00:37:40;;;;;;;4.93;3.72;;;;;;;3.63;77.91;98911.72;6245748;22;20004;-75
2021/04/08 00:40:11;;;;;;;5.03;3.72;;;;;;;3.47;78.26;98916.69;6271810;22;20085;-74
2021/04/08 00:42:36;;;;;;;5.90;3.88;;;;;;;3.41;78.25;98919.47;6272429;22;20367;-74
2021/04/08 00:45:04;;;;;;;6.85;4.35;;;;;;;3.34;78.03;98930.97;6272573;22;20003;-74
2021/04/08 00:47:30;;;;;;;5.68;3.67;;;;;;;3.27;78.27;98937.38;6245337;22;20004;-74
2021/04/08 00:49:55;;;;;;;4.82;3.38;;;;;;;3.17;78.60;98935.31;6245295;22;20004;-75
2021/04/08 00:52:22;;;;;;;5.55;3.78;;;;;;;3.09;78.80;98933.03;6273599;22;20027;-75
2021/04/08 00:54:48;;;;;;;5.20;3.65;;;;;;;2.97;79.11;98923.25;6273492;22;20342;-75
2021/04/08 00:57:13;;;;;;;3.28;2.70;;;;;;;2.88;78.60;98935.19;6275218;22;20344;-75
2021/04/08 00:59:40;;;;;;;5.90;3.45;;;;;;;2.77;78.65;98934.16;6273294;22;20014;-75
2021/04/08 01:02:07;;;;;;;2.90;2.28;;;;;;;2.70;79.49;98933.47;6274620;22;20011;-75
2021/04/08 01:04:34;;;;;;;3.20;2.58;;;;;;;2.64;79.56;98943.06;6282579;22;20000;-78
2021/04/08 01:06:59;;;;;;;3.63;2.83;;;;;;;2.59;79.35;98939.50;6288757;22;20062;-77
2021/04/08 01:09:25;;;;;;;4.25;3.55;;;;;;;2.54;79.26;98950.75;6283499;22;20385;-75
2021/04/08 01:11:51;;;;;;;4.95;2.90;;;;;;;2.48;79.95;98956.91;6278602;22;20452;-76
2021/04/08 01:14:17;;;;;;;3.63;2.97;;;;;;;2.43;79.67;98968.16;6276674;22;20395;-75
2021/04/08 01:16:58;;;;;;;4.97;3.20;;;;;;;2.34;79.86;98962.38;6275138;22;20061;-74
2021/04/08 01:20:01;;;;;;;4.00;2.58;;;;;;;2.32;80.48;98967.09;6274835;22;20012;-74
2021/04/08 01:22:54;;;;;;;5.00;3.28;;;;;;;2.22;80.05;98974.72;6275259;22;20062;-74
2021/04/08 01:25:44;;;;;;;4.43;2.80;;;;;;;2.17;81.16;98983.31;6274178;22;20003;-74
2021/04/08 01:28:26;;;;;;;4.25;2.78;;;;;;;2.09;80.67;98978.34;6252414;22;20108;-75
2021/04/08 01:30:54;;;;;;;6.53;4.00;;;;;;;2.01;80.88;98982.06;6274384;22;20007;-75
2021/04/08 01:33:30;;;;;;;4.82;3.63;;;;;;;1.90;80.54;98978.38;6249457;22;20083;-76
2021/04/08 01:35:58;;;;;;;4.38;2.83;;;;;;;1.82;81.46;98976.00;6274763;22;20011;-75
2021/04/08 01:38:38;;;;;;;;;;;;;;;1.76;81.70;98998.78;6250117;22;20008;-76
2021/04/08 01:41:05;;;;;;;5.30;3.03;;;;;;;1.69;81.71;99002.53;6274739;22;19907;-75
2021/04/08 01:43:37;;;;;;;3.70;2.60;;;;;;;1.57;82.07;99000.59;6275583;22;20007;-77
2021/04/08 01:46:07;;;;;;;4.47;2.72;;;;;;;1.53;82.81;99004.69;6248872;22;20008;-77
2021/04/08 01:48:34;;;;;;;3.97;2.67;;;;;;;1.45;83.36;99007.59;6274815;22;20008;-77
2021/04/08 01:51:01;;;;;;;5.78;2.80;;;;;;;1.42;83.18;98979.84;6248198;22;20030;-76
2021/04/08 01:53:28;;;;;;;3.53;2.53;;;;;;;1.40;83.81;98991.63;6274727;22;20003;-74
2021/04/08 01:55:58;;;;;;;4.63;3.00;;;;;;;1.41;84.33;98982.72;6274453;22;20383;-75
2021/04/08 01:58:25;;;;;;;5.55;3.95;;;;;;;1.40;84.00;98984.56;6247800;22;20004;-74
2021/04/08 02:00:52;;;;;;;5.65;3.60;;;;;;;1.43;84.51;98985.94;6273951;22;20348;-75
2021/04/08 02:03:18;;;;;;;7.25;3.63;;;;;;;1.43;84.26;98992.00;6275407;22;20000;-75
2021/04/08 02:05:44;;;;;;;5.40;4.15;;;;;;;1.49;84.30;99000.88;6275253;22;20364;-77
2021/04/08 02:08:11;;;;;;;7.38;3.45;;;;;;;1.49;84.37;98994.78;6247181;22;20004;-76
2021/04/08 02:10:38;;;;;;;7.72;3.78;;;;;;;1.49;84.38;98984.25;6275177;22;20592;-76
2021/04/08 02:13:08;;;;;;;5.03;3.65;;;;;;;1.50;84.42;98983.25;6247859;22;20007;-76
2021/04/08 02:15:33;;;;;;;8.07;3.92;;;;;;;1.52;84.29;98981.19;6274499;22;20012;-75
2021/04/08 02:18:01;;;;;;;8.73;4.40;;;;;;;1.56;84.45;98998.19;6248120;22;20045;-75
2021/04/08 02:20:34;;;;;;;6.32;3.90;;;;;;;1.60;83.86;99005.44;6246928;22;20429;-74
2021/04/08 02:23:02;;;;;;;5.13;3.70;;;;;;;1.63;84.01;99006.03;6246442;22;20004;-75
2021/04/08 02:25:33;;;;;;;6.20;3.90;;;;;;;1.66;84.12;98997.69;6274988;22;20091;-75
2021/04/08 02:28:07;;;;;;;5.82;3.88;;;;;;;1.63;84.18;98992.84;6249703;22;20083;-75
2021/04/08 02:30:45;;;;;;;5.97;3.85;;;;;;;1.64;83.72;98997.09;6247357;22;20504;-75
2021/04/08 02:33:21;;;;;;;6.38;4.10;;;;;;;1.62;83.44;98996.50;6274489;22;20441;-74
2021/04/08 02:35:48;;;;;;;7.43;3.90;;;;;;;1.62;84.09;98994.66;6252769;22;20091;-75
2021/04/08 02:38:14;;;;;;;5.80;3.47;;;;;;;1.64;84.54;99010.28;6246831;22;20053;-73
2021/04/08 02:40:39;;;;;;;6.95;4.05;;;;;;;1.65;84.24;99010.06;6275312;22;20000;-74
2021/04/08 02:43:05;;;;;;;8.45;4.07;;;;;;;1.63;84.29;99004.19;6275384;22;20086;-74
2021/04/08 02:45:30;;;;;;;9.32;4.20;;;;;;;1.66;84.59;99003.78;6275733;22;20230;-76
2021/04/08 02:47:56;;;;;;;5.60;3.78;;;;;;;1.66;84.63;98998.50;6274429;22;20011;-74
2021/04/08 02:50:21;;;;;;;7.45;4.30;;;;;;;1.67;84.21;98979.03;6275605;22;20406;-74
2021/04/08 02:52:52;;;;;;;4.53;3.85;;;;;;;1.66;84.70;98981.84;6273676;22;20003;-74
2021/04/08 02:55:33;;;;;;;6.53;3.90;;;;;;;1.66;84.60;98981.84;6274476;22;20064;-74
2021/04/08 02:58:04;;;;;;;6.78;4.22;;;;;;;1.75;84.60;98993.72;6273859;22;20058;-74
2021/04/08 03:00:33;;;;;;;6.82;4.45;;;;;;;1.76;84.82;98982.97;6273029;22;20003;-74
2021/04/08 03:03:03;;;;;;;5.22;4.07;;;;;;;1.89;84.81;98994.38;6274671;22;20004;-76
2021/04/08 03:05:31;;;;;;;8.23;5.53;;;;;;;1.97;84.95;98982.75;6246713;22;20007;-74
2021/04/08 03:07:59;;;;;;;6.32;4.35;;;;;;;2.03;84.37;98974.75;6273074;22;20000;-74
2021/04/08 03:10:28;;;;;;;5.00;3.70;;;;;;;2.15;84.43;98985.38;6276583;22;20007;-75
2021/04/08 03:12:57;;;;;;;10.32;6.32;;;;;;;2.28;83.98;98996.78;6254427;22;20003;-77
2021/04/08 03:15:35;;;;;;;7.82;5.43;;;;;;;2.37;83.67;99009.44;6253773;22;20061;-74
2021/04/08 03:18:04;;;;;;;8.18;5.07;;;;;;;2.47;83.23;99018.69;6275531;22;20034;-74
2021/04/08 03:20:31;;;;;;;8.00;5.32;;;;;;;2.60;82.85;99025.59;6275267;22;20000;-73
2021/04/08 03:23:01;;;;;;;6.72;4.45;;;;;;;2.65;82.49;99031.00;6273746;22;20003;-73
2021/04/08 03:25:27;;;;;;;6.30;4.85;;;;;;;2.71;82.31;99033.56;6277016;22;20090;-76
2021/04/08 03:27:53;;;;;;;7.25;5.00;;;;;;;2.81;82.11;99029.59;6252760;22;20011;-76
2021/04/08 03:30:20;;;;;;;6.30;4.65;;;;;;;2.90;81.84;99038.00;6254243;22;20063;-76
2021/04/08 03:32:47;;;;;;;9.20;4.53;;;;;;;2.95;81.40;99036.28;6283658;22;20015;-76
2021/04/08 03:35:13;;;;;;;6.03;4.22;;;;;;;3.00;81.54;99044.34;6281334;22;20015;-76
2021/04/08 03:37:40;;;;;;;6.68;5.00;;;;;;;3.08;81.31;99045.06;6277222;22;20493;-77
2021/04/08 03:40:09;;;;;;;7.30;4.95;;;;;;;3.11;81.47;99052.50;6249068;22;20004;-74
2021/04/08 03:42:35;;;;;;;12.00;7.13;;;;;;;3.14;81.73;99052.88;6274479;22;20038;-76
2021/04/08 03:45:03;;;;;;;5.65;4.57;;;;;;;3.19;81.05;99055.63;6273887;22;19999;-74
2021/04/08 03:47:30;;;;;;;6.53;4.40;;;;;;;3.20;80.48;99059.88;6273634;22;20094;-75
2021/04/08 03:49:57;;;;;;;8.32;4.93;;;;;;;3.23;80.74;99069.19;6282187;22;20007;-76
2021/04/08 03:52:24;;;;;;;8.02;4.88;;;;;;;3.22;79.81;99059.66;6278890;22;20004;-76
2021/04/08 03:54:52;;;;;;;6.03;4.60;;;;;;;3.24;79.68;99073.44;6282650;22;20004;-76
2021/04/08 03:57:20;;;;;;;6.40;4.22;;;;;;;3.27;79.50;99083.59;6277441;22;20030;-76
2021/04/08 03:59:46;;;;;;;;;;;;;;;3.29;79.10;99093.94;6278257;22;20090;-77
2021/04/08 04:02:14;;;;;;;8.50;5.35;;;;;;;3.27;79.40;99099.44;6251753;22;19911;-76
2021/04/08 04:04:47;;;;;;;8.40;5.07;;;;;;;3.29;79.35;99112.44;6283148;22;20357;-79
2021/04/08 04:07:14;;;;;;;7.25;4.97;;;;;;;3.29;78.90;99138.84;6250592;22;19996;-75
2021/04/08 04:09:40;;;;;;;9.95;6.05;;;;;;;3.29;79.00;99141.50;6280446;22;20003;-76
2021/04/08 04:12:07;;;;;;;6.85;4.35;;;;;;;3.26;78.97;99148.03;6277632;22;20390;-78
2021/04/08 04:14:36;;;;;;;6.80;4.13;;;;;;;3.25;78.65;99157.00;6245173;22;20095;-76
2021/04/08 04:17:24;;;;;;;6.88;4.38;;;;;;;3.20;78.88;99154.22;6274989;22;20014;-78
2021/04/08 04:19:49;;;;;;;7.90;4.33;;;;;;;3.22;78.79;99154.78;6279853;22;20007;-76
2021/04/08 04:22:16;;;;;;;5.57;4.07;;;;;;;3.17;78.70;99150.22;6280867;22;20038;-79
2021/04/08 04:24:42;;;;;;;5.18;4.22;;;;;;;3.11;78.55;99137.88;6261839;22;20012;-78
2021/04/08 04:27:07;;;;;;;8.07;5.30;;;;;;;3.09;78.49;99149.69;6253657;22;20006;-77
2021/04/08 04:29:33;;;;;;;7.72;4.50;;;;;;;3.00;78.56;99157.94;6260608;22;20007;-78
2021/04/08 04:32:02;;;;;;;7.88;4.88;;;;;;;2.98;79.20;99160.00;6270664;22;20008;-81
2021/04/08 06:24:43;;;;;;;8.93;6.20;;;;;;;2.72;79.50;99245.63;6217566;23;20008;-83
2021/04/08 08:52:34;;;;;;;7.50;5.00;;;;;;;6.60;64.83;99359.25;6184347;23;20060;-81
2021/04/08 09:00:26;;;;;;;7.78;5.78;;;;;;;6.75;64.20;99357.88;6200039;23;20064;-80
2021/04/08 09:07:46;;;;;;;7.55;5.10;;;;;;;6.84;61.88;99364.41;6043628;23;20076;-80
2021/04/08 09:21:18;;;;;;;5.63;5.03;;;;;;;7.14;58.76;99366.69;6013829;23;20068;-81
2021/04/08 09:38:18;;;;;;;9.18;4.65;;;;;;;7.36;57.43;99379.19;5821881;24;20032;-82
2021/04/08 09:45:21;;;;;;;8.27;4.63;;;;;;;7.27;56.96;99378.03;5825162;24;20055;-80
2021/04/08 09:48:54;;;;;;;5.57;4.03;;;;;;;7.21;56.45;99371.81;5803651;24;20366;-80
2021/04/08 10:11:38;;;;;;;5.05;3.55;;;;;;;6.62;58.60;99397.03;6293642;22;20018;-82
2021/04/08 10:18:00;;;;;;;7.38;4.47;;;;;;;5.97;62.37;99401.72;6168269;22;20024;-80
2021/04/08 10:32:27;;;;;;;7.75;3.80;;;;;;;5.11;64.66;99479.22;6294465;22;20026;-81
2021/04/08 10:35:45;;;;;;;2.50;2.30;;;;;;;4.40;68.34;99505.53;6219136;23;20047;-83
2021/04/08 10:46:19;;;;;;;5.20;2.53;;;;;;;3.31;72.89;99512.19;6227216;23;20031;-80
2021/04/08 10:49:17;;;;;;;5.72;3.30;;;;;;;3.09;73.73;99499.34;6183364;23;20008;-80
2021/04/08 10:52:53;;;;;;;5.10;4.00;;;;;;;3.07;73.57;99497.94;6151620;23;20093;-80
2021/04/08 11:17:36;;;;;;;10.32;5.10;;;;;;;4.22;69.98;99459.50;6239408;22;20023;-80
2021/04/08 11:25:22;;;;;;;8.57;4.38;;;;;;;4.69;67.58;99460.69;6285890;22;20030;-81
2021/04/08 11:29:25;;;;;;;4.88;3.65;;;;;;;4.93;69.70;99454.41;6285962;22;20008;-81
2021/04/08 12:01:06;;;;;;;4.28;2.90;;;;;;;6.22;63.98;99457.16;6028161;23;20469;-81
2021/04/08 14:21:00;;;;;;;8.38;4.03;;;;;;;8.68;51.77;99467.25;6305822;22;20014;-82
2021/04/08 14:23:28;;;;;;;9.45;5.03;;;;;;;8.70;51.01;99467.81;6252127;22;20007;-80
2021/04/08 14:25:55;;;;;;;4.28;3.15;;;;;;;8.71;50.91;99470.22;6279140;22;20010;-79
2021/04/08 14:28:23;;;;;;;6.65;3.70;;;;;;;8.70;49.44;99470.47;6276065;22;20018;-80
2021/04/08 14:30:50;;;;;;;7.50;3.95;;;;;;;8.71;50.76;99477.44;6306257;22;20404;-80
2021/04/08 14:33:25;;;;;;;7.15;3.80;;;;;;;8.72;49.96;99477.16;6279152;22;20070;-80
2021/04/08 14:36:44;;;;;;;4.53;3.67;;;;;;;8.74;50.05;99482.22;6304977;22;19997;-82
2021/04/08 14:39:33;;;;;;;5.20;3.92;;;;;;;8.75;49.99;99483.84;6279036;22;20323;-81
2021/04/08 14:42:00;;;;;;;9.50;5.65;;;;;;;8.77;49.67;99479.88;6281322;22;20014;-80
2021/04/08 14:44:39;;;;;;;14.82;5.78;;;;;;;8.80;49.81;99481.22;6277316;22;20057;-80
2021/04/08 14:47:08;;;;;;;8.05;3.80;;;;;;;8.78;49.67;99486.81;6306157;22;20002;-80
2021/04/08 14:49:45;;;;;;;7.13;4.70;;;;;;;8.81;49.10;99486.31;6251378;22;20009;-82
2021/04/08 14:52:11;;;;;;;6.28;4.82;;;;;;;8.81;50.30;99489.00;6305185;22;19995;-80
2021/04/08 14:54:37;;;;;;;5.97;2.78;;;;;;;8.81;49.37;99483.66;6303375;22;20021;-81
2021/04/08 14:57:04;;;;;;;9.43;5.63;;;;;;;8.86;49.20;99488.25;6304456;22;19999;-80
2021/04/08 14:59:29;;;;;;;10.45;6.05;;;;;;;8.90;50.06;99494.66;6276713;22;20415;-81
2021/04/08 15:01:55;;;;;;;10.07;6.45;;;;;;;8.95;50.93;99488.56;6303530;22;20495;-79
2021/04/08 15:04:20;;;;;;;9.45;5.22;;;;;;;8.97;49.22;99497.09;6302974;22;20356;-80
2021/04/08 15:06:46;;;;;;;7.72;4.85;;;;;;;9.00;48.83;99487.81;6302935;22;20328;-80
2021/04/08 15:09:11;;;;;;;8.38;5.28;;;;;;;9.05;49.03;99488.66;6303216;22;20424;-80
2021/04/08 15:11:38;;;;;;;10.82;4.55;;;;;;;9.13;48.87;99488.19;6277364;22;20475;-79
2021/04/08 15:14:04;;;;;;;8.73;5.10;;;;;;;9.17;47.50;99487.66;6275735;22;20078;-86
2021/04/08 15:16:31;;;;;;;8.45;3.67;;;;;;;9.22;45.45;99493.84;6276565;22;20336;-80
2021/04/08 15:18:58;;;;;;;5.60;2.47;;;;;;;9.23;44.15;99498.13;6277076;22;20011;-83
2021/04/08 15:21:24;;;;;;;3.55;2.85;;;;;;;9.25;44.60;99497.88;6276081;22;20085;-85
2021/04/08 15:23:50;;;;;;;5.47;2.95;;;;;;;9.28;44.47;99498.16;6303997;22;20037;-81
2021/04/08 15:26:17;;;;;;;4.25;2.35;;;;;;;9.28;43.31;99500.81;6301657;22;20007;-80
2021/04/08 15:28:42;;;;;;;5.63;2.97;;;;;;;9.27;44.13;99499.22;6300960;22;20420;-78
2021/04/08 15:31:08;;;;;;;3.63;1.95;;;;;;;9.26;43.20;99499.47;6301375;22;20014;-77
2021/04/08 15:33:34;;;;;;;2.83;2.30;;;;;;;9.18;42.83;99498.09;6303092;22;19999;-77
2021/04/08 15:36:02;;;;;;;2.67;2.10;;;;;;;9.15;42.37;99501.25;6302142;22;20078;-77
2021/04/08 15:38:27;;;;;;;4.95;3.40;;;;;;;9.11;43.36;99497.50;6302810;22;20010;-78
2021/04/08 15:40:53;;;;;;;4.65;2.53;;;;;;;9.13;43.40;99498.06;6302398;22;20003;-78
2021/04/08 15:43:21;;;;;;;3.08;2.65;;;;;;;9.06;42.34;99502.81;6302834;22;20003;-77
2021/04/08 15:45:47;;;;;;;4.30;2.45;;;;;;;9.04;43.34;99512.91;6304543;22;20428;-78
2021/04/08 15:48:12;;;;;;;5.05;2.72;;;;;;;8.99;43.38;99512.88;6277373;22;19995;-77
2021/04/08 15:50:38;;;;;;;6.93;2.75;;;;;;;8.94;42.29;99518.97;6303817;22;19991;-76
2021/04/08 15:53:04;;;;;;;3.60;3.03;;;;;;;8.90;42.45;99518.66;6306052;22;19995;-76
2021/04/08 15:55:29;;;;;;;8.85;4.88;;;;;;;8.81;41.60;99521.00;6306728;22;20003;-77
2021/04/08 15:57:55;;;;;;;4.45;3.20;;;;;;;8.75;40.53;99518.50;6304858;22;19995;-80
2021/04/08 16:00:22;;;;;;;4.60;3.15;;;;;;;8.73;42.18;99523.31;6304240;22;19999;-78
2021/04/08 16:02:48;;;;;;;4.53;2.40;;;;;;;8.68;42.14;99517.91;6304797;22;20497;-80
2021/04/08 16:05:14;;;;;;;12.00;3.13;;;;;;;8.63;41.78;99524.81;6278216;22;20003;-79
2021/04/08 16:07:40;;;;;;;3.80;2.80;;;;;;;8.60;42.53;99529.84;6278386;22;19999;-79
2021/04/08 16:10:16;;;;;;;2.25;1.80;;;;;;;8.57;41.35;99531.16;6307291;22;20337;-85
2021/04/08 16:12:47;;;;;;;2.65;2.00;;;;;;;8.51;42.12;99529.50;6305557;22;20003;-76
2021/04/08 16:15:13;;;;;;;4.60;3.20;;;;;;;8.50;43.07;99538.53;6304643;22;19991;-76
2021/04/08 16:17:40;;;;;;;4.32;2.75;;;;;;;8.47;42.20;99542.50;6304776;22;20045;-77
2021/04/08 16:20:06;;;;;;;9.85;5.75;;;;;;;8.47;42.75;99545.16;6278000;22;19991;-80
2021/04/08 16:22:32;;;;;;;5.40;3.40;;;;;;;8.46;42.21;99553.41;6304007;22;20371;-80
2021/04/08 16:24:57;;;;;;;6.25;3.63;;;;;;;8.45;42.72;99568.56;6303664;22;20003;-80
2021/04/08 16:27:23;;;;;;;6.05;3.00;;;;;;;8.41;43.31;99579.97;6304441;22;20007;-80
2021/04/08 16:29:57;;;;;;;2.92;2.25;;;;;;;8.27;42.19;99583.00;6304186;22;19999;-81
2021/04/08 16:32:49;;;;;;;3.33;2.47;;;;;;;8.14;41.33;99581.53;6305835;22;20003;-81
2021/04/08 16:35:15;;;;;;;1.95;1.73;;;;;;;8.05;41.11;99567.00;6303861;22;20009;-80
2021/04/08 16:37:42;;;;;;;2.13;1.63;;;;;;;7.96;40.94;99592.47;6284054;22;20030;-80
2021/04/08 16:40:15;;;;;;;2.75;2.28;;;;;;;7.88;41.32;99591.00;6279072;22;19999;-78
2021/04/08 16:43:04;;;;;;;4.75;3.00;;;;;;;7.81;41.45;99591.19;6281464;22;20003;-83
2021/04/08 16:46:10;;;;;;;3.58;2.60;;;;;;;7.76;42.21;99599.06;6231795;22;20005;-85
2021/04/08 16:55:48;;;;;;;1.67;1.52;;;;;;;7.40;40.60;99617.16;6294822;22;20022;-79
2021/04/08 16:58:14;;;;;;;4.38;1.60;;;;;;;7.37;41.22;99585.69;6255991;22;20035;-78
2021/04/08 17:00:39;;;;;;;3.70;2.33;;;;;;;7.32;41.70;99586.44;6253585;22;20004;-78
2021/04/08 17:03:06;;;;;;;2.13;1.50;;;;;;;7.29;39.41;99583.47;6278370;22;19999;-80
2021/04/08 17:05:32;;;;;;;2.33;1.58;;;;;;;7.27;39.45;99590.88;6278045;22;19995;-77
2021/04/08 17:07:57;;;;;;;8.43;1.70;;;;;;;7.22;38.54;99597.69;6247651;22;20373;-78
2021/04/08 17:10:23;;;;;;;2.65;1.35;;;;;;;7.22;39.14;99602.22;6248622;22;19992;-77
2021/04/08 17:12:49;;;;;;;4.22;1.40;;;;;;;7.19;38.63;99602.72;6246330;22;20065;-77
2021/04/08 17:15:14;;;;;;;2.03;1.60;;;;;;;7.17;38.63;99602.94;6249792;22;20006;-79
2021/04/08 17:17:40;;;;;;;2.13;1.67;;;;;;;7.15;38.19;99610.38;6253804;22;20387;-80
2021/04/08 17:20:27;;;;;;;1.95;1.30;;;;;;;7.15;37.94;99609.53;6265428;22;20432;-80
2021/04/08 17:22:56;;;;;;;2.13;1.38;;;;;;;7.10;38.23;99618.22;6309227;22;19995;-79
2021/04/08 17:25:27;;;;;;;3.70;1.73;;;;;;;7.10;38.10;99623.56;6311018;22;20085;-81
2021/04/08 17:28:08;;;;;;;6.05;2.40;;;;;;;7.08;39.08;99633.63;6289454;22;19983;-80
2021/04/08 17:30:41;;;;;;;3.50;2.30;;;;;;;7.04;38.89;99633.31;6313733;22;20057;-81
2021/04/08 17:36:31;;;;;;;4.43;2.55;;;;;;;6.98;38.81;99646.72;6246710;23;20415;-80
2021/04/08 17:39:02;;;;;;;9.80;3.72;;;;;;;6.94;39.41;99653.56;6224623;23;19996;-81
2021/04/08 17:41:32;;;;;;;3.90;2.75;;;;;;;6.87;38.58;99657.19;6221684;23;20039;-81
2021/04/08 17:47:04;;;;;;;3.67;2.38;;;;;;;6.82;39.21;99669.56;6262730;22;20027;-80
2021/04/08 17:49:29;;;;;;;7.63;4.45;;;;;;;6.78;40.44;99669.22;6227431;23;20019;-80
2021/04/08 17:51:55;;;;;;;6.32;2.42;;;;;;;6.77;40.18;99677.44;6219761;23;19992;-80
2021/04/08 17:55:00;;;;;;;5.13;2.65;;;;;;;6.75;40.55;99680.34;6248095;23;20404;-81
2021/04/08 18:01:07;;;;;;;11.00;6.28;;;;;;;6.61;40.72;99700.25;6251462;23;20039;-80
2021/04/08 18:03:34;;;;;;;16.27;6.90;;;;;;;6.55;41.42;99707.28;6248030;23;19992;-80
2021/04/08 18:06:00;;;;;;;12.38;7.80;;;;;;;6.49;41.60;99697.59;6244511;23;20010;-80
2021/04/08 18:08:25;;;;;;;14.05;7.35;;;;;;;6.39;42.30;99714.13;6220789;23;19992;-79
2021/04/08 18:10:51;;;;;;;5.55;3.38;;;;;;;6.31;41.44;99715.28;6228934;23;19988;-80
2021/04/08 18:13:16;;;;;;;11.07;4.80;;;;;;;6.24;42.63;99707.41;6224157;23;20000;-78
2021/04/08 18:15:42;;;;;;;6.45;3.83;;;;;;;6.24;42.55;99727.88;6246048;23;20095;-78
2021/04/08 18:18:08;;;;;;;8.57;4.13;;;;;;;6.22;42.97;99736.03;6230683;23;19984;-81
2021/04/08 18:20:35;;;;;;;9.35;4.15;;;;;;;6.21;43.29;99739.75;6250447;23;20336;-79
2021/04/08 18:23:03;;;;;;;4.85;3.75;;;;;;;6.22;44.07;99741.34;6245568;23;19999;-81
2021/04/08 18:25:29;;;;;;;11.10;6.47;;;;;;;6.24;43.92;99749.13;6245950;23;19996;-80
2021/04/08 18:27:56;;;;;;;6.15;3.75;;;;;;;6.22;43.54;99751.97;6274588;22;20000;-80
2021/04/08 18:30:22;;;;;;;8.30;2.75;;;;;;;6.22;42.83;99753.84;6265064;22;20023;-79
2021/04/08 18:32:54;;;;;;;4.50;2.58;;;;;;;6.23;43.33;99756.25;6255898;22;20053;-81
2021/04/08 18:36:03;;;;;;;4.40;2.20;;;;;;;6.20;44.23;99761.22;6257982;22;20211;-81
2021/04/08 18:42:30;;;;;;;3.60;2.35;;;;;;;6.00;43.79;99761.53;6297491;22;20014;-82
2021/04/08 18:45:43;;;;;;;21.05;11.30;;;;;;;5.89;43.33;99776.38;6299062;22;19988;-82
2021/04/08 18:48:15;;;;;;;9.60;5.70;;;;;;;5.79;44.20;99774.28;6287686;22;20000;-81
2021/04/08 18:50:41;;;;;;;6.80;3.78;;;;;;;5.72;43.82;99786.81;6247796;22;19987;-76
2021/04/08 18:53:09;;;;;;;25.67;12.68;;;;;;;5.67;45.27;99779.53;6248106;22;20012;-78
2021/04/08 18:55:37;;;;;;;29.83;13.30;;;;;;;5.63;46.16;99790.81;6274049;22;20007;-77
2021/04/08 18:58:04;;;;;;;30.98;15.18;;;;;;;5.58;48.06;99789.66;6250369;22;20000;-76
2021/04/08 19:00:31;;;;;;;30.23;15.13;;;;;;;5.53;49.15;99786.88;6253040;22;20065;-77
2021/04/08 19:02:57;;;;;;;30.88;18.02;;;;;;;5.53;49.48;99786.88;6256377;22;20061;-78
2021/04/08 19:05:24;;;;;;;19.02;10.45;;;;;;;5.52;49.02;99792.41;6257265;22;20012;-79
2021/04/08 19:07:54;;;;;;;31.73;15.43;;;;;;;5.50;49.29;99797.13;6281908;22;20845;-81
2021/04/08 19:10:28;;;;;;;29.33;13.70;;;;;;;5.49;49.27;99796.28;6255666;22;20008;-79
2021/04/08 19:12:54;;;;;;;22.15;13.82;;;;;;;5.49;48.65;99806.91;6256030;22;19991;-78
2021/04/08 19:15:29;;;;;;;30.77;14.60;;;;;;;5.49;49.13;99803.47;6255483;22;20015;-80
2021/04/08 19:17:55;;;;;;;23.30;10.40;;;;;;;5.52;48.18;99811.78;6258551;22;19980;-80
2021/04/08 19:23:36;;;;;;;28.25;16.67;;;;;;;5.52;50.64;99811.78;6243008;22;20015;-81
2021/04/08 19:26:03;;;;;;;28.40;15.45;;;;;;;5.52;50.77;99811.78;6248276;22;20022;-77
2021/04/08 19:28:29;;;;;;;24.10;13.98;;;;;;;5.51;49.93;99812.81;6252720;22;20022;-80
2021/04/08 19:31:00;;;;;;;28.30;15.35;;;;;;;5.51;49.07;99807.50;6255594;22;19992;-79
2021/04/08 19:33:28;;;;;;;23.83;11.27;;;;;;;5.52;49.66;99811.78;6250305;22;20088;-79
2021/04/08 19:35:55;;;;;;;21.20;10.83;;;;;;;5.51;48.73;99809.34;6252399;22;20020;-80
2021/04/08 19:38:20;;;;;;;24.30;11.68;;;;;;;5.50;48.84;99805.88;6251661;22;20622;-78
2021/04/08 19:40:47;;;;;;;31.83;14.63;;;;;;;5.49;51.10;99814.88;6249354;22;19995;-77
2021/04/08 19:43:36;;;;;;;33.88;15.70;;;;;;;5.48;51.68;99815.91;6252988;22;19987;-81
2021/04/08 19:46:01;;;;;;;28.88;15.13;;;;;;;5.43;51.91;99826.38;6249191;22;20003;-79
2021/04/08 19:48:27;;;;;;;26.73;13.50;;;;;;;5.38;52.08;99824.41;6277619;22;20018;-77
2021/04/08 19:50:52;;;;;;;21.40;12.88;;;;;;;5.35;52.19;99818.75;6277473;22;20417;-77
2021/04/08 19:53:21;;;;;;;18.77;11.80;;;;;;;5.32;52.71;99814.66;6276478;22;20000;-77
2021/04/08 19:55:49;;;;;;;24.02;12.23;;;;;;;5.26;52.50;99816.38;6249167;22;20051;-78
2021/04/08 19:58:18;;;;;;;30.77;14.63;;;;;;;5.23;52.97;99824.75;6247708;22;20000;-78
2021/04/08 20:00:45;;;;;;;30.35;14.15;;;;;;;5.16;53.60;99817.91;6273962;22;20082;-73
2021/04/08 20:03:11;;;;;;;24.90;13.75;;;;;;;5.13;54.04;99821.81;6275162;22;20002;-77
2021/04/08 20:05:37;;;;;;;30.20;13.82;;;;;;;5.05;54.75;99825.56;6247409;22;19992;-75
2021/04/08 20:08:03;;;;;;;24.23;12.27;;;;;;;5.00;54.43;99824.63;6247535;22;20008;-75
2021/04/08 20:10:29;;;;;;;23.08;12.77;;;;;;;4.95;54.46;99826.06;6278851;22;20063;-80
2021/04/08 20:12:55;;;;;;;19.58;11.32;;;;;;;4.90;54.78;99833.88;6252090;22;19999;-77
2021/04/08 20:15:20;;;;;;;14.05;8.70;;;;;;;4.86;54.73;99834.53;6251460;22;20006;-76
2021/04/08 20:17:46;;;;;;;14.45;8.50;;;;;;;4.83;55.06;99841.06;6249478;22;20006;-76
2021/04/08 20:20:13;;;;;;;13.60;8.30;;;;;;;4.82;54.92;99844.75;6246304;23;20455;-77
2021/04/08 20:22:40;;;;;;;13.18;7.00;;;;;;;4.77;54.52;99844.59;6246882;23;20008;-77
2021/04/08 20:25:07;;;;;;;13.10;6.63;;;;;;;4.75;54.45;99847.47;6245095;23;20020;-78
2021/04/08 20:27:32;;;;;;;12.68;7.13;;;;;;;4.73;54.20;99844.22;6247633;23;20091;-77
2021/04/08 20:29:58;;;;;;;11.90;6.65;;;;;;;4.72;53.83;99852.41;6251318;23;20409;-79
2021/04/08 20:32:23;;;;;;;9.60;6.35;;;;;;;4.68;54.17;99852.00;6223260;23;20014;-77
2021/04/08 20:34:49;;;;;;;10.32;6.22;;;;;;;4.67;54.51;99855.69;6251565;23;20487;-78
2021/04/08 20:37:15;;;;;;;15.75;6.43;;;;;;;4.64;54.20;99846.34;6225816;23;20006;-79
2021/04/08 20:39:40;;;;;;;15.77;7.82;;;;;;;4.62;54.39;99847.59;6223562;23;20463;-79
2021/04/08 20:42:06;;;;;;;13.70;7.85;;;;;;;4.57;54.64;99847.44;6247150;23;20008;-78
2021/04/08 20:44:32;;;;;;;18.80;8.05;;;;;;;4.60;54.94;99857.59;6251460;23;20004;-78
2021/04/08 20:46:58;;;;;;;11.60;7.88;;;;;;;4.57;54.38;99858.03;6219659;23;20004;-79
2021/04/08 20:49:27;;;;;;;11.25;6.80;;;;;;;4.54;53.92;99853.16;6250162;23;20007;-78
2021/04/08 20:51:54;;;;;;;10.93;5.97;;;;;;;4.51;53.68;99851.75;6224840;23;20398;-77
2021/04/08 20:54:20;;;;;;;9.70;6.07;;;;;;;4.49;52.92;99854.63;6250700;23;20413;-78
2021/04/08 20:56:46;;;;;;;10.38;6.10;;;;;;;4.45;53.17;99847.31;6225939;23;19997;-77
2021/04/08 20:59:12;;;;;;;13.00;6.38;;;;;;;4.45;53.92;99863.19;6222597;23;20011;-78
2021/04/08 21:01:37;;;;;;;12.02;5.90;;;;;;;4.42;53.83;99855.69;6246235;23;20004;-77
2021/04/08 21:04:03;;;;;;;10.10;5.22;;;;;;;4.38;52.98;99857.13;6226132;23;20443;-77
2021/04/08 21:06:29;;;;;;;9.13;4.43;;;;;;;4.35;51.75;99860.22;6252893;23;20004;-77
2021/04/08 21:08:54;;;;;;;5.95;3.70;;;;;;;4.32;51.29;99850.84;6252343;23;20003;-78
2021/04/08 21:11:20;;;;;;;7.75;3.75;;;;;;;4.28;51.33;99857.63;6227253;23;20433;-75